Saint-Eustache, Canada
Current Conditions -  °F | °C
As of 2:00 AM on Sunday 26 Oct 2014 (Local Time) from CYMX Reporting Station
Overcast Overcast  
Wind Chill: 44°   Ceiling: 10000
Heat Index: 46°   Visibility: 25mi
Dew Point: 45°   Wind: 5mph
Humidity: 93%   Direction: 270°W
Pressure: 29.41"   Gusts: NA
Location:  45.57°N, 73.9°W
Report Text: CYMX 260600Z 27004KT 240V310 25SM SCT007 SCT050 BKN100 OVC120 08/07 A2941 RMK SF3SC1AC2AC2 SLP960
Loading
Personal Weather Stations






























Interactive Weather Map
Tropical Storm Tracking
New forecast layout! Learn more

10-Day Weather Forecast

Advertisements
Track Severe Weather on mobile